Terminal Aerodrome Forecast
Issued by NWS

Home | Current Version | Previous Version | Text Only | Print | Product List | Glossary On
Versions: 1 2 3 4 5 6 7 8 9 10 11 12 13 14 15 16 17 18 19 20 21 22
000
FTUS43 KLOT 290859 AAB
TAFGYY
TAF AMD
KGYY 290859Z 2909/3006 20009KT P6SM FEW150 BKN250
     FM291500 23014G25KT P6SM FEW045 SCT250
     FM292100 26014G25KT P6SM FEW060
     FM300200 24006KT P6SM SKC=

USA.gov is the U.S. government's official web portal to all federal, state and local government web resources and services.